sensor_id;sensor_type;location;lat;lon;timestamp;P1;durP1;ratioP1;P2;durP2;ratioP2
16862;SDS011;52193;48.216;-1.698;2022-12-15T00:00:50;10.68;;;9.88;;
16862;SDS011;52193;48.216;-1.698;2022-12-15T00:03:34;10.25;;;9.45;;
16862;SDS011;52193;48.216;-1.698;2022-12-15T00:06:19;10.60;;;9.70;;
16862;SDS011;52193;48.216;-1.698;2022-12-15T00:09:03;11.48;;;10.57;;
16862;SDS011;52193;48.216;-1.698;2022-12-15T00:11:48;11.13;;;10.23;;
16862;SDS011;52193;48.216;-1.698;2022-12-15T00:14:32;11.60;;;10.70;;
16862;SDS011;52193;48.216;-1.698;2022-12-15T00:17:18;11.73;;;10.82;;
16862;SDS011;52193;48.216;-1.698;2022-12-15T00:20:02;12.93;;;11.93;;
16862;SDS011;52193;48.216;-1.698;2022-12-15T00:22:48;11.60;;;10.70;;
16862;SDS011;52193;48.216;-1.698;2022-12-15T00:25:32;11.60;;;10.70;;
16862;SDS011;52193;48.216;-1.698;2022-12-15T00:28:16;12.23;;;11.13;;
16862;SDS011;52193;48.216;-1.698;2022-12-15T00:31:00;11.90;;;10.93;;
16862;SDS011;52193;48.216;-1.698;2022-12-15T00:33:46;11.98;;;11.07;;
16862;SDS011;52193;48.216;-1.698;2022-12-15T00:36:31;12.32;;;11.32;;
16862;SDS011;52193;48.216;-1.698;2022-12-15T00:39:16;12.65;;;11.55;;
16862;SDS011;52193;48.216;-1.698;2022-12-15T00:41:43;12.85;;;11.85;;
16862;SDS011;52193;48.216;-1.698;2022-12-15T00:44:10;13.60;;;12.50;;
16862;SDS011;52193;48.216;-1.698;2022-12-15T00:46:37;13.80;;;12.60;;
16862;SDS011;52193;48.216;-1.698;2022-12-15T00:49:22;13.30;;;12.20;;
16862;SDS011;52193;48.216;-1.698;2022-12-15T00:52:08;13.98;;;12.88;;
16862;SDS011;52193;48.216;-1.698;2022-12-15T00:54:53;14.38;;;13.20;;
16862;SDS011;52193;48.216;-1.698;2022-12-15T00:57:38;13.77;;;12.68;;
16862;SDS011;52193;48.216;-1.698;2022-12-15T01:00:23;14.82;;;13.63;;
16862;SDS011;52193;48.216;-1.698;2022-12-15T01:03:08;14.85;;;13.48;;
16862;SDS011;52193;48.216;-1.698;2022-12-15T01:05:55;15.20;;;14.00;;
16862;SDS011;52193;48.216;-1.698;2022-12-15T01:08:39;14.52;;;13.38;;
16862;SDS011;52193;48.216;-1.698;2022-12-15T01:11:24;15.38;;;14.10;;
16862;SDS011;52193;48.216;-1.698;2022-12-15T01:14:08;16.25;;;14.85;;
16862;SDS011;52193;48.216;-1.698;2022-12-15T01:16:52;16.27;;;14.85;;
16862;SDS011;52193;48.216;-1.698;2022-12-15T01:19:36;16.63;;;15.23;;
16862;SDS011;52193;48.216;-1.698;2022-12-15T01:22:22;15.52;;;14.23;;
16862;SDS011;52193;48.216;-1.698;2022-12-15T01:24:49;16.15;;;14.75;;
16862;SDS011;52193;48.216;-1.698;2022-12-15T01:27:16;16.27;;;14.98;;
16862;SDS011;52193;48.216;-1.698;2022-12-15T01:29:43;16.05;;;14.75;;
16862;SDS011;52193;48.216;-1.698;2022-12-15T01:32:10;15.63;;;14.32;;
16862;SDS011;52193;48.216;-1.698;2022-12-15T01:34:38;15.60;;;14.32;;
16862;SDS011;52193;48.216;-1.698;2022-12-15T01:37:05;16.23;;;14.82;;
16862;SDS011;52193;48.216;-1.698;2022-12-15T01:39:33;16.80;;;15.30;;
16862;SDS011;52193;48.216;-1.698;2022-12-15T01:42:18;16.30;;;14.90;;
16862;SDS011;52193;48.216;-1.698;2022-12-15T01:44:45;17.02;;;15.52;;
16862;SDS011;52193;48.216;-1.698;2022-12-15T01:47:15;17.25;;;15.85;;
16862;SDS011;52193;48.216;-1.698;2022-12-15T01:49:43;16.60;;;15.27;;
16862;SDS011;52193;48.216;-1.698;2022-12-15T01:52:12;16.65;;;15.15;;
16862;SDS011;52193;48.216;-1.698;2022-12-15T01:54:42;16.83;;;15.43;;
16862;SDS011;52193;48.216;-1.698;2022-12-15T01:57:16;16.27;;;14.98;;
16862;SDS011;52193;48.216;-1.698;2022-12-15T01:59:46;17.30;;;15.90;;
16862;SDS011;52193;48.216;-1.698;2022-12-15T02:02:16;17.00;;;15.60;;
16862;SDS011;52193;48.216;-1.698;2022-12-15T02:04:45;17.38;;;15.88;;
16862;SDS011;52193;48.216;-1.698;2022-12-15T02:07:14;16.80;;;15.30;;
16862;SDS011;52193;48.216;-1.698;2022-12-15T02:09:44;16.63;;;15.23;;
16862;SDS011;52193;48.216;-1.698;2022-12-15T02:12:16;16.60;;;15.20;;
16862;SDS011;52193;48.216;-1.698;2022-12-15T02:14:57;17.08;;;15.55;;
16862;SDS011;52193;48.216;-1.698;2022-12-15T02:17:36;17.05;;;15.48;;
16862;SDS011;52193;48.216;-1.698;2022-12-15T02:20:17;15.82;;;14.50;;
16862;SDS011;52193;48.216;-1.698;2022-12-15T02:23:16;15.95;;;14.63;;
16862;SDS011;52193;48.216;-1.698;2022-12-15T02:26:21;16.60;;;15.27;;
16862;SDS011;52193;48.216;-1.698;2022-12-15T02:29:17;15.98;;;14.52;;
16862;SDS011;52193;48.216;-1.698;2022-12-15T02:32:09;17.48;;;15.95;;
16862;SDS011;52193;48.216;-1.698;2022-12-15T02:34:39;16.80;;;15.40;;
16862;SDS011;52193;48.216;-1.698;2022-12-15T02:37:11;16.20;;;14.95;;
16862;SDS011;52193;48.216;-1.698;2022-12-15T02:39:40;16.98;;;15.38;;
16862;SDS011;52193;48.216;-1.698;2022-12-15T02:42:08;17.40;;;15.90;;
16862;SDS011;52193;48.216;-1.698;2022-12-15T02:44:36;16.63;;;15.32;;
16862;SDS011;52193;48.216;-1.698;2022-12-15T02:47:12;16.25;;;14.75;;
16862;SDS011;52193;48.216;-1.698;2022-12-15T02:49:48;15.68;;;14.38;;
16862;SDS011;52193;48.216;-1.698;2022-12-15T02:52:33;15.55;;;14.35;;
16862;SDS011;52193;48.216;-1.698;2022-12-15T02:55:10;15.75;;;14.35;;
16862;SDS011;52193;48.216;-1.698;2022-12-15T02:57:43;15.70;;;14.40;;
16862;SDS011;52193;48.216;-1.698;2022-12-15T03:00:18;15.98;;;14.68;;
16862;SDS011;52193;48.216;-1.698;2022-12-15T03:02:49;15.15;;;13.95;;
16862;SDS011;52193;48.216;-1.698;2022-12-15T03:05:18;15.20;;;13.90;;
16862;SDS011;52193;48.216;-1.698;2022-12-15T03:07:48;15.65;;;14.35;;
16862;SDS011;52193;48.216;-1.698;2022-12-15T03:10:15;15.20;;;14.00;;
16862;SDS011;52193;48.216;-1.698;2022-12-15T03:12:43;14.88;;;13.68;;
16862;SDS011;52193;48.216;-1.698;2022-12-15T03:15:10;14.85;;;13.75;;
16862;SDS011;52193;48.216;-1.698;2022-12-15T03:17:37;13.85;;;12.70;;
16862;SDS011;52193;48.216;-1.698;2022-12-15T03:20:07;15.00;;;13.80;;
16862;SDS011;52193;48.216;-1.698;2022-12-15T03:22:36;14.32;;;13.20;;
16862;SDS011;52193;48.216;-1.698;2022-12-15T03:25:03;13.82;;;12.73;;
16862;SDS011;52193;48.216;-1.698;2022-12-15T03:27:31;13.50;;;12.30;;
16862;SDS011;52193;48.216;-1.698;2022-12-15T03:29:58;13.48;;;12.38;;
16862;SDS011;52193;48.216;-1.698;2022-12-15T03:32:25;13.73;;;12.55;;
16862;SDS011;52193;48.216;-1.698;2022-12-15T03:34:53;13.30;;;12.30;;
16862;SDS011;52193;48.216;-1.698;2022-12-15T03:37:21;12.82;;;11.80;;
16862;SDS011;52193;48.216;-1.698;2022-12-15T03:39:48;12.30;;;11.40;;
16862;SDS011;52193;48.216;-1.698;2022-12-15T03:42:15;12.57;;;11.57;;
16862;SDS011;52193;48.216;-1.698;2022-12-15T03:45:02;12.65;;;11.65;;
16862;SDS011;52193;48.216;-1.698;2022-12-15T03:47:30;12.98;;;11.98;;
16862;SDS011;52193;48.216;-1.698;2022-12-15T03:49:57;11.77;;;10.90;;
16862;SDS011;52193;48.216;-1.698;2022-12-15T03:52:25;12.40;;;11.35;;
16862;SDS011;52193;48.216;-1.698;2022-12-15T03:54:52;11.10;;;10.27;;
16862;SDS011;52193;48.216;-1.698;2022-12-15T03:57:19;11.15;;;10.35;;
16862;SDS011;52193;48.216;-1.698;2022-12-15T03:59:47;10.63;;;9.82;;
16862;SDS011;52193;48.216;-1.698;2022-12-15T04:02:14;9.85;;;9.15;;
16862;SDS011;52193;48.216;-1.698;2022-12-15T04:04:41;9.90;;;9.15;;
16862;SDS011;52193;48.216;-1.698;2022-12-15T04:07:08;9.75;;;9.05;;
16862;SDS011;52193;48.216;-1.698;2022-12-15T04:09:36;10.85;;;10.02;;
16862;SDS011;52193;48.216;-1.698;2022-12-15T04:12:03;10.10;;;9.30;;
16862;SDS011;52193;48.216;-1.698;2022-12-15T04:14:31;9.43;;;8.73;;
16862;SDS011;52193;48.216;-1.698;2022-12-15T04:16:58;9.20;;;8.50;;
16862;SDS011;52193;48.216;-1.698;2022-12-15T04:19:25;9.20;;;8.50;;
16862;SDS011;52193;48.216;-1.698;2022-12-15T04:22:09;8.82;;;8.23;;
16862;SDS011;52193;48.216;-1.698;2022-12-15T04:24:37;8.77;;;8.07;;
16862;SDS011;52193;48.216;-1.698;2022-12-15T04:27:22;9.02;;;8.32;;
16862;SDS011;52193;48.216;-1.698;2022-12-15T04:30:07;8.93;;;8.23;;
16862;SDS011;52193;48.216;-1.698;2022-12-15T04:32:52;8.88;;;8.27;;
16862;SDS011;52193;48.216;-1.698;2022-12-15T04:35:37;8.27;;;7.68;;
16862;SDS011;52193;48.216;-1.698;2022-12-15T04:38:21;8.93;;;8.23;;
16862;SDS011;52193;48.216;-1.698;2022-12-15T04:41:07;8.27;;;7.68;;
16862;SDS011;52193;48.216;-1.698;2022-12-15T04:43:51;8.57;;;7.97;;
16862;SDS011;52193;48.216;-1.698;2022-12-15T04:46:36;9.13;;;8.43;;
16862;SDS011;52193;48.216;-1.698;2022-12-15T04:49:20;8.27;;;7.68;;
16862;SDS011;52193;48.216;-1.698;2022-12-15T04:52:05;8.48;;;7.88;;
16862;SDS011;52193;48.216;-1.698;2022-12-15T04:54:49;8.77;;;8.07;;
16862;SDS011;52193;48.216;-1.698;2022-12-15T04:57:35;8.18;;;7.57;;
16862;SDS011;52193;48.216;-1.698;2022-12-15T05:00:19;8.18;;;7.47;;
16862;SDS011;52193;48.216;-1.698;2022-12-15T05:03:04;7.85;;;7.35;;
16862;SDS011;52193;48.216;-1.698;2022-12-15T05:05:49;7.63;;;7.03;;
16862;SDS011;52193;48.216;-1.698;2022-12-15T05:08:33;8.23;;;7.63;;
16862;SDS011;52193;48.216;-1.698;2022-12-15T05:11:18;8.00;;;7.40;;
16862;SDS011;52193;48.216;-1.698;2022-12-15T05:14:04;7.95;;;7.35;;
16862;SDS011;52193;48.216;-1.698;2022-12-15T05:16:49;7.50;;;6.93;;
16862;SDS011;52193;48.216;-1.698;2022-12-15T05:19:33;8.30;;;7.70;;
16862;SDS011;52193;48.216;-1.698;2022-12-15T05:22:17;7.20;;;6.70;;
16862;SDS011;52193;48.216;-1.698;2022-12-15T05:25:02;6.10;;;5.70;;
16862;SDS011;52193;48.216;-1.698;2022-12-15T05:27:46;6.88;;;6.40;;
16862;SDS011;52193;48.216;-1.698;2022-12-15T05:30:32;7.38;;;6.88;;
16862;SDS011;52193;48.216;-1.698;2022-12-15T05:33:16;7.15;;;6.65;;
16862;SDS011;52193;48.216;-1.698;2022-12-15T05:35:43;7.50;;;6.90;;
16862;SDS011;52193;48.216;-1.698;2022-12-15T05:38:10;6.93;;;6.43;;
16862;SDS011;52193;48.216;-1.698;2022-12-15T05:40:37;7.53;;;6.95;;
16862;SDS011;52193;48.216;-1.698;2022-12-15T05:43:04;7.32;;;6.82;;
16862;SDS011;52193;48.216;-1.698;2022-12-15T05:45:32;7.88;;;7.32;;
16862;SDS011;52193;48.216;-1.698;2022-12-15T05:47:59;7.50;;;7.00;;
16862;SDS011;52193;48.216;-1.698;2022-12-15T05:50:26;7.43;;;6.82;;
16862;SDS011;52193;48.216;-1.698;2022-12-15T05:52:53;6.80;;;6.30;;
16862;SDS011;52193;48.216;-1.698;2022-12-15T05:55:22;7.55;;;6.95;;
16862;SDS011;52193;48.216;-1.698;2022-12-15T05:57:50;6.97;;;6.47;;
16862;SDS011;52193;48.216;-1.698;2022-12-15T06:00:17;7.32;;;6.82;;
16862;SDS011;52193;48.216;-1.698;2022-12-15T06:02:46;7.38;;;6.78;;
16862;SDS011;52193;48.216;-1.698;2022-12-15T06:05:13;6.80;;;6.30;;
16862;SDS011;52193;48.216;-1.698;2022-12-15T06:07:40;7.07;;;6.50;;
16862;SDS011;52193;48.216;-1.698;2022-12-15T06:10:08;7.32;;;6.82;;
16862;SDS011;52193;48.216;-1.698;2022-12-15T06:12:35;7.38;;;6.88;;
16862;SDS011;52193;48.216;-1.698;2022-12-15T06:15:02;6.78;;;6.28;;
16862;SDS011;52193;48.216;-1.698;2022-12-15T06:17:30;7.57;;;6.97;;
16862;SDS011;52193;48.216;-1.698;2022-12-15T06:19:59;6.95;;;6.50;;
16862;SDS011;52193;48.216;-1.698;2022-12-15T06:22:27;7.38;;;6.88;;
16862;SDS011;52193;48.216;-1.698;2022-12-15T06:24:54;7.78;;;7.15;;
16862;SDS011;52193;48.216;-1.698;2022-12-15T06:27:21;8.13;;;7.53;;
16862;SDS011;52193;48.216;-1.698;2022-12-15T06:29:48;7.07;;;6.53;;
16862;SDS011;52193;48.216;-1.698;2022-12-15T06:32:15;6.78;;;6.28;;
16862;SDS011;52193;48.216;-1.698;2022-12-15T06:34:42;6.93;;;6.35;;
16862;SDS011;52193;48.216;-1.698;2022-12-15T06:37:10;6.88;;;6.38;;
16862;SDS011;52193;48.216;-1.698;2022-12-15T06:39:37;6.28;;;5.88;;
16862;SDS011;52193;48.216;-1.698;2022-12-15T06:42:04;6.75;;;6.18;;
16862;SDS011;52193;48.216;-1.698;2022-12-15T06:44:31;15.45;;;13.85;;
16862;SDS011;52193;48.216;-1.698;2022-12-15T06:46:58;7.32;;;6.82;;
16862;SDS011;52193;48.216;-1.698;2022-12-15T06:49:25;6.82;;;6.32;;
16862;SDS011;52193;48.216;-1.698;2022-12-15T06:51:52;6.10;;;5.68;;
16862;SDS011;52193;48.216;-1.698;2022-12-15T06:54:20;6.40;;;6.00;;
16862;SDS011;52193;48.216;-1.698;2022-12-15T06:56:47;6.90;;;6.40;;
16862;SDS011;52193;48.216;-1.698;2022-12-15T06:59:14;6.50;;;6.00;;
16862;SDS011;52193;48.216;-1.698;2022-12-15T07:01:41;6.15;;;5.65;;
16862;SDS011;52193;48.216;-1.698;2022-12-15T07:04:08;7.43;;;6.93;;
16862;SDS011;52193;48.216;-1.698;2022-12-15T07:06:36;7.60;;;7.00;;
16862;SDS011;52193;48.216;-1.698;2022-12-15T07:09:04;6.35;;;5.95;;
16862;SDS011;52193;48.216;-1.698;2022-12-15T07:11:34;6.30;;;5.88;;
16862;SDS011;52193;48.216;-1.698;2022-12-15T07:14:01;5.45;;;5.05;;
16862;SDS011;52193;48.216;-1.698;2022-12-15T07:16:28;6.13;;;5.72;;
16862;SDS011;52193;48.216;-1.698;2022-12-15T07:18:56;5.93;;;5.53;;
16862;SDS011;52193;48.216;-1.698;2022-12-15T07:21:23;6.05;;;5.57;;
16862;SDS011;52193;48.216;-1.698;2022-12-15T07:23:50;5.85;;;5.45;;
16862;SDS011;52193;48.216;-1.698;2022-12-15T07:26:17;6.05;;;5.65;;
16862;SDS011;52193;48.216;-1.698;2022-12-15T07:28:45;5.30;;;4.90;;
16862;SDS011;52193;48.216;-1.698;2022-12-15T07:31:12;5.32;;;4.93;;
16862;SDS011;52193;48.216;-1.698;2022-12-15T07:33:39;5.82;;;5.32;;
16862;SDS011;52193;48.216;-1.698;2022-12-15T07:36:06;5.60;;;5.20;;
16862;SDS011;52193;48.216;-1.698;2022-12-15T07:38:34;5.72;;;5.32;;
16862;SDS011;52193;48.216;-1.698;2022-12-15T07:41:01;5.65;;;5.25;;
16862;SDS011;52193;48.216;-1.698;2022-12-15T07:43:29;5.10;;;4.80;;
16862;SDS011;52193;48.216;-1.698;2022-12-15T07:45:58;5.50;;;5.10;;
16862;SDS011;52193;48.216;-1.698;2022-12-15T07:48:25;5.70;;;5.30;;
16862;SDS011;52193;48.216;-1.698;2022-12-15T07:50:53;4.40;;;4.20;;
16862;SDS011;52193;48.216;-1.698;2022-12-15T07:53:23;6.25;;;5.75;;
16862;SDS011;52193;48.216;-1.698;2022-12-15T07:55:55;5.43;;;5.03;;
16862;SDS011;52193;48.216;-1.698;2022-12-15T07:58:23;5.40;;;5.00;;
16862;SDS011;52193;48.216;-1.698;2022-12-15T08:00:51;5.20;;;4.80;;
16862;SDS011;52193;48.216;-1.698;2022-12-15T08:03:19;5.90;;;5.50;;
16862;SDS011;52193;48.216;-1.698;2022-12-15T08:05:46;5.00;;;4.70;;
16862;SDS011;52193;48.216;-1.698;2022-12-15T08:08:13;4.80;;;4.50;;
16862;SDS011;52193;48.216;-1.698;2022-12-15T08:10:42;5.15;;;4.85;;
16862;SDS011;52193;48.216;-1.698;2022-12-15T08:13:09;5.18;;;4.88;;
16862;SDS011;52193;48.216;-1.698;2022-12-15T08:15:38;6.07;;;5.65;;
16862;SDS011;52193;48.216;-1.698;2022-12-15T08:18:06;6.35;;;5.75;;
16862;SDS011;52193;48.216;-1.698;2022-12-15T08:20:35;4.78;;;4.47;;
16862;SDS011;52193;48.216;-1.698;2022-12-15T08:23:02;5.15;;;4.80;;
16862;SDS011;52193;48.216;-1.698;2022-12-15T08:25:29;4.88;;;4.47;;
16862;SDS011;52193;48.216;-1.698;2022-12-15T08:27:57;5.18;;;4.78;;
16862;SDS011;52193;48.216;-1.698;2022-12-15T08:30:24;4.97;;;4.60;;
16862;SDS011;52193;48.216;-1.698;2022-12-15T08:32:51;4.57;;;4.28;;
16862;SDS011;52193;48.216;-1.698;2022-12-15T08:35:18;4.72;;;4.35;;
16862;SDS011;52193;48.216;-1.698;2022-12-15T08:37:46;4.75;;;4.45;;
16862;SDS011;52193;48.216;-1.698;2022-12-15T08:40:14;5.68;;;5.13;;
16862;SDS011;52193;48.216;-1.698;2022-12-15T08:42:41;5.30;;;4.70;;
16862;SDS011;52193;48.216;-1.698;2022-12-15T08:45:09;5.80;;;5.40;;
16862;SDS011;52193;48.216;-1.698;2022-12-15T08:47:37;5.28;;;4.97;;
16862;SDS011;52193;48.216;-1.698;2022-12-15T08:50:05;6.15;;;5.65;;
16862;SDS011;52193;48.216;-1.698;2022-12-15T08:52:33;5.80;;;5.30;;
16862;SDS011;52193;48.216;-1.698;2022-12-15T08:55:01;5.22;;;4.93;;
16862;SDS011;52193;48.216;-1.698;2022-12-15T08:57:28;5.35;;;4.95;;
16862;SDS011;52193;48.216;-1.698;2022-12-15T08:59:55;5.30;;;4.80;;
16862;SDS011;52193;48.216;-1.698;2022-12-15T09:02:22;5.15;;;4.85;;
16862;SDS011;52193;48.216;-1.698;2022-12-15T09:04:49;6.00;;;5.50;;
16862;SDS011;52193;48.216;-1.698;2022-12-15T09:07:16;5.63;;;5.22;;
16862;SDS011;52193;48.216;-1.698;2022-12-15T09:09:43;5.40;;;5.10;;
16862;SDS011;52193;48.216;-1.698;2022-12-15T09:12:11;5.22;;;4.82;;
16862;SDS011;52193;48.216;-1.698;2022-12-15T09:14:38;5.15;;;4.80;;
16862;SDS011;52193;48.216;-1.698;2022-12-15T09:17:06;4.50;;;4.20;;
16862;SDS011;52193;48.216;-1.698;2022-12-15T09:19:33;5.00;;;4.70;;
16862;SDS011;52193;48.216;-1.698;2022-12-15T09:22:00;5.25;;;4.88;;
16862;SDS011;52193;48.216;-1.698;2022-12-15T09:24:29;5.03;;;4.60;;
16862;SDS011;52193;48.216;-1.698;2022-12-15T09:26:56;4.60;;;4.28;;
16862;SDS011;52193;48.216;-1.698;2022-12-15T09:29:24;4.75;;;4.30;;
16862;SDS011;52193;48.216;-1.698;2022-12-15T09:31:51;4.88;;;4.47;;
16862;SDS011;52193;48.216;-1.698;2022-12-15T09:34:18;4.80;;;4.50;;
16862;SDS011;52193;48.216;-1.698;2022-12-15T09:36:45;4.85;;;4.45;;
16862;SDS011;52193;48.216;-1.698;2022-12-15T09:39:12;4.78;;;4.47;;
16862;SDS011;52193;48.216;-1.698;2022-12-15T09:41:41;4.68;;;4.38;;
16862;SDS011;52193;48.216;-1.698;2022-12-15T09:44:15;4.90;;;4.60;;
16862;SDS011;52193;48.216;-1.698;2022-12-15T09:46:49;4.85;;;4.40;;
16862;SDS011;52193;48.216;-1.698;2022-12-15T09:49:29;5.20;;;4.80;;
16862;SDS011;52193;48.216;-1.698;2022-12-15T09:52:09;4.88;;;4.57;;
16862;SDS011;52193;48.216;-1.698;2022-12-15T09:54:38;4.97;;;4.60;;
16862;SDS011;52193;48.216;-1.698;2022-12-15T09:57:07;5.35;;;4.85;;
16862;SDS011;52193;48.216;-1.698;2022-12-15T09:59:40;5.10;;;4.80;;
16862;SDS011;52193;48.216;-1.698;2022-12-15T10:02:27;5.70;;;5.30;;
16862;SDS011;52193;48.216;-1.698;2022-12-15T10:05:23;5.35;;;4.95;;
16862;SDS011;52193;48.216;-1.698;2022-12-15T10:08:00;5.50;;;5.10;;
16862;SDS011;52193;48.216;-1.698;2022-12-15T10:10:29;5.90;;;5.47;;
16862;SDS011;52193;48.216;-1.698;2022-12-15T10:13:00;6.03;;;5.63;;
16862;SDS011;52193;48.216;-1.698;2022-12-15T10:15:33;5.60;;;5.20;;
16862;SDS011;52193;48.216;-1.698;2022-12-15T10:18:10;5.43;;;5.03;;
16862;SDS011;52193;48.216;-1.698;2022-12-15T10:20:44;4.65;;;4.25;;
16862;SDS011;52193;48.216;-1.698;2022-12-15T10:23:12;5.25;;;4.85;;
16862;SDS011;52193;48.216;-1.698;2022-12-15T10:25:42;5.35;;;4.72;;
16862;SDS011;52193;48.216;-1.698;2022-12-15T10:28:25;4.65;;;4.35;;
16862;SDS011;52193;48.216;-1.698;2022-12-15T10:31:12;4.43;;;4.13;;
16862;SDS011;52193;48.216;-1.698;2022-12-15T10:33:45;5.07;;;4.70;;
16862;SDS011;52193;48.216;-1.698;2022-12-15T10:36:20;4.90;;;4.60;;
16862;SDS011;52193;48.216;-1.698;2022-12-15T10:38:47;5.07;;;4.78;;
16862;SDS011;52193;48.216;-1.698;2022-12-15T10:41:14;4.50;;;4.20;;
16862;SDS011;52193;48.216;-1.698;2022-12-15T10:43:45;3.47;;;3.28;;
16862;SDS011;52193;48.216;-1.698;2022-12-15T10:46:14;4.28;;;4.00;;
16862;SDS011;52193;48.216;-1.698;2022-12-15T10:48:44;5.68;;;4.55;;
16862;SDS011;52193;48.216;-1.698;2022-12-15T10:51:18;4.60;;;4.30;;
16862;SDS011;52193;48.216;-1.698;2022-12-15T10:53:47;4.03;;;3.72;;
16862;SDS011;52193;48.216;-1.698;2022-12-15T10:56:20;4.70;;;4.40;;
16862;SDS011;52193;48.216;-1.698;2022-12-15T10:58:50;4.72;;;4.43;;
16862;SDS011;52193;48.216;-1.698;2022-12-15T11:01:19;4.47;;;4.18;;
16862;SDS011;52193;48.216;-1.698;2022-12-15T11:03:52;4.65;;;4.35;;
16862;SDS011;52193;48.216;-1.698;2022-12-15T11:06:21;4.43;;;4.13;;
16862;SDS011;52193;48.216;-1.698;2022-12-15T11:08:50;4.30;;;4.00;;
16862;SDS011;52193;48.216;-1.698;2022-12-15T11:11:22;4.90;;;4.60;;
16862;SDS011;52193;48.216;-1.698;2022-12-15T11:14:11;5.30;;;4.90;;
16862;SDS011;52193;48.216;-1.698;2022-12-15T11:16:47;5.95;;;5.43;;
16862;SDS011;52193;48.216;-1.698;2022-12-15T11:19:23;5.43;;;5.03;;
16862;SDS011;52193;48.216;-1.698;2022-12-15T11:21:56;5.95;;;5.45;;
16862;SDS011;52193;48.216;-1.698;2022-12-15T11:24:30;4.35;;;4.05;;
16862;SDS011;52193;48.216;-1.698;2022-12-15T11:27:05;4.32;;;4.03;;
16862;SDS011;52193;48.216;-1.698;2022-12-15T11:29:43;4.20;;;3.90;;
16862;SDS011;52193;48.216;-1.698;2022-12-15T11:32:17;4.40;;;4.00;;
16862;SDS011;52193;48.216;-1.698;2022-12-15T11:34:48;4.43;;;4.13;;
16862;SDS011;52193;48.216;-1.698;2022-12-15T11:37:25;4.70;;;4.40;;
16862;SDS011;52193;48.216;-1.698;2022-12-15T11:40:05;5.15;;;4.72;;
16862;SDS011;52193;48.216;-1.698;2022-12-15T11:43:13;5.80;;;5.30;;
16862;SDS011;52193;48.216;-1.698;2022-12-15T11:46:16;3.70;;;3.50;;
16862;SDS011;52193;48.216;-1.698;2022-12-15T11:48:48;3.72;;;3.53;;
16862;SDS011;52193;48.216;-1.698;2022-12-15T11:51:30;4.00;;;3.70;;
16862;SDS011;52193;48.216;-1.698;2022-12-15T11:54:06;4.30;;;4.00;;
16862;SDS011;52193;48.216;-1.698;2022-12-15T11:56:41;4.30;;;4.00;;
16862;SDS011;52193;48.216;-1.698;2022-12-15T11:59:20;4.60;;;4.30;;
16862;SDS011;52193;48.216;-1.698;2022-12-15T12:02:02;4.45;;;4.15;;
16862;SDS011;52193;48.216;-1.698;2022-12-15T12:04:59;4.45;;;4.15;;
16862;SDS011;52193;48.216;-1.698;2022-12-15T12:07:49;4.30;;;4.00;;
16862;SDS011;52193;48.216;-1.698;2022-12-15T12:10:27;4.35;;;3.97;;
16862;SDS011;52193;48.216;-1.698;2022-12-15T12:13:03;5.47;;;5.00;;
16862;SDS011;52193;48.216;-1.698;2022-12-15T12:15:43;4.90;;;4.55;;
16862;SDS011;52193;48.216;-1.698;2022-12-15T12:18:20;3.97;;;3.67;;
16862;SDS011;52193;48.216;-1.698;2022-12-15T12:20:52;5.55;;;5.15;;
16862;SDS011;52193;48.216;-1.698;2022-12-15T12:23:28;5.05;;;4.65;;
16862;SDS011;52193;48.216;-1.698;2022-12-15T12:26:01;4.55;;;4.25;;
16862;SDS011;52193;48.216;-1.698;2022-12-15T12:28:34;4.30;;;4.00;;
16862;SDS011;52193;48.216;-1.698;2022-12-15T12:31:12;5.35;;;4.95;;
16862;SDS011;52193;48.216;-1.698;2022-12-15T12:33:47;5.45;;;5.15;;
16862;SDS011;52193;48.216;-1.698;2022-12-15T12:36:16;4.60;;;4.30;;
16862;SDS011;52193;48.216;-1.698;2022-12-15T12:38:46;4.15;;;3.85;;
16862;SDS011;52193;48.216;-1.698;2022-12-15T12:41:15;4.47;;;4.10;;
16862;SDS011;52193;48.216;-1.698;2022-12-15T12:43:49;4.47;;;4.18;;
16862;SDS011;52193;48.216;-1.698;2022-12-15T12:46:20;5.32;;;4.93;;
16862;SDS011;52193;48.216;-1.698;2022-12-15T12:48:52;4.60;;;4.30;;
16862;SDS011;52193;48.216;-1.698;2022-12-15T12:51:22;4.43;;;4.00;;
16862;SDS011;52193;48.216;-1.698;2022-12-15T12:53:55;4.45;;;4.00;;
16862;SDS011;52193;48.216;-1.698;2022-12-15T12:56:30;5.20;;;4.88;;
16862;SDS011;52193;48.216;-1.698;2022-12-15T12:59:02;5.72;;;5.07;;
16862;SDS011;52193;48.216;-1.698;2022-12-15T13:01:33;4.50;;;4.20;;
16862;SDS011;52193;48.216;-1.698;2022-12-15T13:04:09;3.95;;;3.65;;
16862;SDS011;52193;48.216;-1.698;2022-12-15T13:06:56;4.05;;;3.75;;
16862;SDS011;52193;48.216;-1.698;2022-12-15T13:09:37;3.75;;;3.55;;
16862;SDS011;52193;48.216;-1.698;2022-12-15T13:15:02;3.78;;;3.50;;
16862;SDS011;52193;48.216;-1.698;2022-12-15T13:17:37;3.72;;;3.42;;
16862;SDS011;52193;48.216;-1.698;2022-12-15T13:22:54;3.60;;;3.40;;
16862;SDS011;52193;48.216;-1.698;2022-12-15T13:25:39;3.70;;;3.40;;
16862;SDS011;52193;48.216;-1.698;2022-12-15T13:28:16;3.67;;;3.38;;
16862;SDS011;52193;48.216;-1.698;2022-12-15T13:31:11;4.00;;;3.75;;
16862;SDS011;52193;48.216;-1.698;2022-12-15T13:33:54;3.75;;;3.55;;
16862;SDS011;52193;48.216;-1.698;2022-12-15T13:39:31;3.88;;;3.50;;
16862;SDS011;52193;48.216;-1.698;2022-12-15T13:42:31;3.80;;;3.60;;
16862;SDS011;52193;48.216;-1.698;2022-12-15T13:47:54;3.38;;;3.17;;
16862;SDS011;52193;48.216;-1.698;2022-12-15T13:50:33;3.78;;;3.58;;
16862;SDS011;52193;48.216;-1.698;2022-12-15T13:53:07;4.00;;;3.80;;
16862;SDS011;52193;48.216;-1.698;2022-12-15T13:55:47;4.32;;;3.92;;
16862;SDS011;52193;48.216;-1.698;2022-12-15T13:58:20;5.18;;;4.72;;
16862;SDS011;52193;48.216;-1.698;2022-12-15T14:00:50;4.28;;;3.97;;
16862;SDS011;52193;48.216;-1.698;2022-12-15T14:03:18;3.95;;;3.70;;
16862;SDS011;52193;48.216;-1.698;2022-12-15T14:05:49;3.28;;;3.08;;
16862;SDS011;52193;48.216;-1.698;2022-12-15T14:08:18;3.65;;;3.45;;
16862;SDS011;52193;48.216;-1.698;2022-12-15T14:10:47;3.20;;;3.00;;
16862;SDS011;52193;48.216;-1.698;2022-12-15T14:13:17;4.03;;;3.70;;
16862;SDS011;52193;48.216;-1.698;2022-12-15T14:15:51;3.78;;;3.58;;
16862;SDS011;52193;48.216;-1.698;2022-12-15T14:18:21;3.50;;;3.20;;
16862;SDS011;52193;48.216;-1.698;2022-12-15T14:20:51;3.90;;;3.65;;
16862;SDS011;52193;48.216;-1.698;2022-12-15T14:23:18;4.45;;;4.15;;
16862;SDS011;52193;48.216;-1.698;2022-12-15T14:25:56;3.70;;;3.40;;
16862;SDS011;52193;48.216;-1.698;2022-12-15T14:28:31;3.33;;;2.78;;
16862;SDS011;52193;48.216;-1.698;2022-12-15T14:31:01;3.08;;;2.88;;
16862;SDS011;52193;48.216;-1.698;2022-12-15T14:33:30;3.15;;;2.95;;
16862;SDS011;52193;48.216;-1.698;2022-12-15T14:36:00;3.20;;;3.00;;
16862;SDS011;52193;48.216;-1.698;2022-12-15T14:38:31;3.60;;;3.40;;
16862;SDS011;52193;48.216;-1.698;2022-12-15T14:41:02;3.42;;;3.13;;
16862;SDS011;52193;48.216;-1.698;2022-12-15T14:43:32;3.17;;;3.00;;
16862;SDS011;52193;48.216;-1.698;2022-12-15T14:46:06;3.45;;;3.25;;
16862;SDS011;52193;48.216;-1.698;2022-12-15T14:48:36;3.40;;;3.20;;
16862;SDS011;52193;48.216;-1.698;2022-12-15T14:51:04;3.22;;;3.03;;
16862;SDS011;52193;48.216;-1.698;2022-12-15T14:53:36;3.17;;;2.97;;
16862;SDS011;52193;48.216;-1.698;2022-12-15T14:56:12;3.88;;;3.58;;
16862;SDS011;52193;48.216;-1.698;2022-12-15T14:58:54;3.90;;;3.70;;
16862;SDS011;52193;48.216;-1.698;2022-12-15T15:01:25;3.58;;;3.38;;
16862;SDS011;52193;48.216;-1.698;2022-12-15T15:04:00;3.55;;;3.35;;
16862;SDS011;52193;48.216;-1.698;2022-12-15T15:06:30;3.65;;;3.35;;
16862;SDS011;52193;48.216;-1.698;2022-12-15T15:11:49;3.42;;;3.22;;
16862;SDS011;52193;48.216;-1.698;2022-12-15T15:14:21;3.90;;;3.65;;
16862;SDS011;52193;48.216;-1.698;2022-12-15T15:16:57;3.53;;;3.33;;
16862;SDS011;52193;48.216;-1.698;2022-12-15T15:19:27;3.58;;;3.38;;